Tazoult-Lambese, Algeria

59°F / 15°C
Clear
Humidity: 31%
Dew Point: 28°F / -2°C
Wind: Variable at 2 mph / 4 km/h
Pressure: 30.09 in / 1019 hPa (Falling)
Visibility: -
Clouds:
Yesterday's Maximum: 61°F / 16°C
Yesterday's Minimum: 32°F / 0°C approx.
Yesterday's Heating Degree Days: 19 approx.
Sunrise:7:17 AM CET
Sunset:6:20 PM CET
Moon Rise:6:18 PM CET
Moon Set:7:15 AM CET
Moon Phase Full Moon
NOAA Weather Radio
No local feed.
METAR DABC 191330Z VRB02KT CAVOK 15/M02 Q1019
As of: 2:30 PM CET on February 19, 2019
Observed at: Constantine, Algeria

View Station's History

Local Satellite

Current Satellite Forecast
Region Default Local
No Yes

View Full Screen WunderMap

Forecast

Current Satellite Forecast

Features

Weather Apps

WunderRadio

Weather Underground Apps
Check out our wide variety of mobile and setup applications.

Weather Underground Applications

Top of Page

© Copyright 2019
The Weather Company, LLC